createdAt,value
2022-11-14T00:01:41.576Z,6.70
2022-11-14T00:04:29.658Z,6.70
2022-11-14T00:07:17.337Z,6.60
2022-11-14T00:10:04.841Z,6.60
2022-11-14T00:12:52.023Z,6.70
2022-11-14T00:15:40.369Z,6.60
2022-11-14T00:18:27.533Z,6.50
2022-11-14T00:21:14.873Z,6.40
2022-11-14T00:24:01.767Z,6.40
2022-11-14T00:26:48.490Z,6.30
2022-11-14T00:29:35.517Z,6.30
2022-11-14T00:32:23.664Z,6.20
2022-11-14T00:35:11.201Z,6.20
2022-11-14T00:37:57.999Z,6.20
2022-11-14T00:40:44.819Z,6.30
2022-11-14T00:43:31.663Z,6.30
2022-11-14T00:46:18.401Z,6.30
2022-11-14T00:49:06.911Z,6.40
2022-11-14T00:51:53.414Z,6.50
2022-11-14T00:54:40.188Z,6.60
2022-11-14T00:57:26.885Z,6.60
2022-11-14T01:00:15.309Z,6.70
2022-11-14T01:03:02.273Z,6.60
2022-11-14T01:05:52.540Z,6.60
2022-11-14T01:08:39.739Z,6.50
2022-11-14T01:11:26.738Z,6.50
2022-11-14T01:14:13.791Z,6.50
2022-11-14T01:17:00.684Z,6.30
2022-11-14T01:19:47.596Z,6.30
2022-11-14T01:22:35.547Z,6.20
2022-11-14T01:25:22.277Z,6.30
2022-11-14T01:28:10.279Z,6.30
2022-11-14T01:30:57.417Z,6.30
2022-11-14T01:33:44.834Z,6.30
2022-11-14T01:36:31.516Z,6.40
2022-11-14T01:39:19.702Z,6.50
2022-11-14T01:42:06.379Z,6.70
2022-11-14T01:44:54.486Z,6.70
2022-11-14T01:47:41.248Z,6.90
2022-11-14T01:50:29.337Z,7.00
2022-11-14T01:53:16.261Z,7.10
2022-11-14T01:56:07.106Z,7.20
2022-11-14T01:58:59.181Z,7.20
2022-11-14T02:01:48.849Z,7.30
2022-11-14T02:04:38.905Z,7.30
2022-11-14T02:07:28.550Z,7.20
2022-11-14T02:10:22.653Z,7.30
2022-11-14T02:13:11.888Z,7.30
2022-11-14T02:15:58.824Z,7.30
2022-11-14T02:18:45.756Z,7.20
2022-11-14T02:21:33.878Z,7.30
2022-11-14T02:24:20.759Z,7.30
2022-11-14T02:27:08.362Z,7.20
2022-11-14T02:29:55.518Z,7.20
2022-11-14T02:33:09.620Z,7.20
2022-11-14T02:35:50.247Z,7.20
2022-11-14T02:38:38.715Z,7.10
2022-11-14T02:41:25.486Z,7.00
2022-11-14T02:44:12.672Z,7.00
2022-11-14T02:46:59.674Z,6.90
2022-11-14T02:49:46.381Z,6.80
2022-11-14T02:52:33.183Z,6.70
2022-11-14T02:55:21.558Z,6.60
2022-11-14T02:58:08.530Z,6.50
2022-11-14T03:01:18.970Z,6.40
2022-11-14T03:04:03.344Z,6.40
2022-11-14T03:06:50.452Z,6.30
2022-11-14T03:09:37.209Z,6.30
2022-11-14T03:12:25.423Z,6.20
2022-11-14T03:15:12.776Z,6.20
2022-11-14T03:17:59.558Z,6.20
2022-11-14T03:20:46.435Z,6.10
2022-11-14T03:23:34.698Z,6.20
2022-11-14T03:26:21.533Z,6.10
2022-11-14T03:29:09.827Z,6.10
2022-11-14T03:31:56.687Z,6.00
2022-11-14T03:34:43.739Z,6.00
2022-11-14T03:37:30.925Z,5.90
2022-11-14T03:40:18.001Z,5.90
2022-11-14T03:43:05.176Z,5.90
2022-11-14T03:45:53.434Z,5.80
2022-11-14T03:48:41.355Z,5.90
2022-11-14T03:51:28.022Z,5.90
2022-11-14T03:54:14.801Z,5.90
2022-11-14T03:57:01.879Z,6.00
2022-11-14T03:59:48.908Z,6.00
2022-11-14T04:02:38.095Z,6.10
2022-11-14T04:05:25.387Z,6.20
2022-11-14T04:08:12.414Z,6.30
2022-11-14T04:10:59.373Z,6.30
2022-11-14T04:13:46.435Z,6.30
2022-11-14T04:16:33.321Z,6.40
2022-11-14T04:19:21.900Z,6.40
2022-11-14T04:22:08.983Z,6.40
2022-11-14T04:24:55.761Z,6.40
2022-11-14T04:27:42.566Z,6.40
2022-11-14T04:30:34.417Z,6.40
2022-11-14T04:33:21.904Z,6.40
2022-11-14T04:36:10.526Z,6.20
2022-11-14T04:38:57.597Z,5.90
2022-11-14T04:41:44.094Z,5.90
2022-11-14T04:44:31.022Z,5.70
2022-11-14T04:47:17.952Z,5.60
2022-11-14T04:50:05.070Z,5.50
2022-11-14T04:52:54.719Z,5.30
2022-11-14T04:55:41.618Z,5.10
2022-11-14T04:58:29.342Z,5.00
2022-11-14T05:01:16.903Z,4.90
2022-11-14T05:04:03.838Z,4.80
2022-11-14T05:06:50.665Z,4.80
2022-11-14T05:09:39.206Z,4.80
2022-11-14T05:12:25.928Z,4.80
2022-11-14T05:15:12.893Z,4.90
2022-11-14T05:17:59.772Z,4.80
2022-11-14T05:20:46.960Z,4.90
2022-11-14T05:23:33.767Z,5.00
2022-11-14T05:26:21.915Z,5.00
2022-11-14T05:29:08.671Z,4.90
2022-11-14T05:31:55.581Z,4.90
2022-11-14T05:34:42.453Z,4.80
2022-11-14T05:37:29.421Z,4.80
2022-11-14T05:40:19.104Z,4.80
2022-11-14T05:43:07.643Z,4.80
2022-11-14T05:45:54.605Z,4.80
2022-11-14T05:48:42.152Z,4.80
2022-11-14T05:51:29.032Z,4.70
2022-11-14T05:54:16.196Z,4.70
2022-11-14T05:57:02.997Z,4.70
2022-11-14T05:59:51.025Z,4.70
2022-11-14T06:02:38.778Z,4.80
2022-11-14T06:05:25.575Z,4.80
2022-11-14T06:08:12.410Z,4.90
2022-11-14T06:11:04.670Z,5.10
2022-11-14T06:13:52.222Z,5.20
2022-11-14T06:16:40.662Z,5.20
2022-11-14T06:19:28.247Z,5.30
2022-11-14T06:22:15.051Z,5.30
2022-11-14T06:25:01.900Z,5.40
2022-11-14T06:27:48.910Z,5.40
2022-11-14T06:30:35.795Z,5.50
2022-11-14T06:33:24.113Z,5.40
2022-11-14T06:36:12.250Z,5.40
2022-11-14T06:38:59.380Z,5.40
2022-11-14T06:41:46.106Z,5.40
2022-11-14T06:44:32.748Z,5.40
2022-11-14T06:47:19.566Z,5.40
2022-11-14T06:50:09.435Z,5.50
2022-11-14T06:52:58.530Z,5.50
2022-11-14T06:55:53.167Z,5.40
2022-11-14T06:58:42.199Z,5.40
2022-11-14T07:01:29.025Z,5.50
2022-11-14T07:04:16.137Z,5.60
2022-11-14T07:07:04.531Z,5.70
2022-11-14T07:09:51.676Z,5.70
2022-11-14T07:12:38.653Z,5.80
2022-11-14T07:15:25.324Z,6.10
2022-11-14T07:18:12.064Z,6.30
2022-11-14T07:21:00.408Z,6.50
2022-11-14T07:23:48.769Z,6.60
2022-11-14T07:26:35.611Z,6.60
2022-11-14T07:29:22.346Z,6.40
2022-11-14T07:32:09.115Z,6.40
2022-11-14T07:35:01.937Z,6.40
2022-11-14T07:37:49.532Z,6.50
2022-11-14T07:40:38.659Z,6.40
2022-11-14T07:43:25.825Z,6.30
2022-11-14T07:46:14.261Z,6.40
2022-11-14T07:49:01.355Z,6.50
2022-11-14T07:51:49.020Z,6.50
2022-11-14T07:54:35.801Z,6.50
2022-11-14T07:57:24.559Z,6.60
2022-11-14T08:00:12.668Z,6.60
2022-11-14T08:02:59.845Z,6.60
2022-11-14T08:05:47.276Z,6.60
2022-11-14T08:08:34.335Z,6.80
2022-11-14T08:12:22.633Z,6.90
2022-11-14T08:16:11.926Z,7.30
2022-11-14T08:19:36.439Z,8.10
2022-11-14T08:22:24.424Z,8.80
2022-11-14T08:25:11.376Z,9.40
2022-11-14T08:27:58.881Z,9.70
2022-11-14T08:30:47.220Z,9.60
2022-11-14T08:33:34.264Z,9.50
2022-11-14T08:36:21.017Z,9.40
2022-11-14T08:39:07.766Z,9.60
2022-11-14T08:41:54.692Z,9.80
2022-11-14T08:44:41.338Z,10.00
2022-11-14T08:47:29.430Z,10.20
2022-11-14T08:50:17.019Z,10.60
2022-11-14T08:53:03.830Z,11.10
2022-11-14T08:55:50.869Z,11.50
2022-11-14T08:58:37.890Z,11.70
2022-11-14T09:01:25.555Z,11.90
2022-11-14T09:04:13.707Z,12.50
2022-11-14T09:07:00.496Z,12.50
2022-11-14T09:09:47.553Z,12.30
2022-11-14T09:12:34.360Z,12.20
2022-11-14T09:15:22.249Z,12.60
2022-11-14T09:18:09.887Z,13.00
2022-11-14T09:21:03.192Z,13.00
2022-11-14T09:23:51.555Z,13.20
2022-11-14T09:26:39.679Z,13.30
2022-11-14T09:29:27.753Z,13.50
2022-11-14T09:32:14.628Z,13.80
2022-11-14T09:35:02.624Z,13.60
2022-11-14T09:37:50.927Z,14.10
2022-11-14T09:40:51.310Z,14.50
2022-11-14T09:44:00.999Z,15.00
2022-11-14T09:46:54.880Z,15.50
2022-11-14T09:49:44.224Z,15.80
2022-11-14T09:52:36.865Z,15.80
2022-11-14T09:55:35.173Z,16.10
2022-11-14T09:58:23.766Z,16.10
2022-11-14T10:01:16.925Z,16.30
2022-11-14T10:04:12.203Z,16.60
2022-11-14T10:07:09.034Z,17.30
2022-11-14T10:10:04.717Z,18.20
2022-11-14T10:13:02.211Z,19.10
2022-11-14T10:15:55.874Z,19.60
2022-11-14T10:19:10.782Z,19.80
2022-11-14T10:22:13.115Z,20.30
2022-11-14T10:25:14.233Z,20.40
2022-11-14T10:28:31.878Z,20.20
2022-11-14T10:31:26.550Z,19.90
2022-11-14T10:34:22.717Z,19.60
2022-11-14T10:37:19.002Z,19.60
2022-11-14T10:40:17.733Z,19.00
2022-11-14T10:43:17.770Z,18.70
2022-11-14T10:46:09.061Z,18.60
2022-11-14T10:49:00.057Z,18.30
2022-11-14T10:51:52.304Z,18.30
2022-11-14T10:54:45.611Z,18.20
2022-11-14T10:57:32.636Z,18.20
2022-11-14T11:00:23.060Z,18.40
2022-11-14T11:03:10.123Z,18.30
2022-11-14T11:05:57.933Z,18.00
2022-11-14T11:09:02.626Z,17.90
2022-11-14T11:11:56.421Z,17.60
2022-11-14T11:14:43.921Z,17.40
2022-11-14T11:17:38.508Z,17.30
2022-11-14T11:20:30.827Z,17.20
2022-11-14T11:23:23.069Z,16.90
2022-11-14T11:26:19.181Z,17.00
2022-11-14T11:29:09.996Z,16.80
2022-11-14T11:31:58.941Z,16.70
2022-11-14T11:34:47.450Z,16.80
2022-11-14T11:37:40.171Z,16.70
2022-11-14T11:40:28.914Z,16.60
2022-11-14T11:46:33.305Z,16.00
2022-11-14T11:49:26.020Z,15.90
2022-11-14T11:52:21.084Z,15.80
2022-11-14T11:55:18.400Z,15.70
2022-11-14T11:58:12.065Z,15.70
2022-11-14T12:00:58.699Z,15.80
2022-11-14T12:03:49.427Z,15.70
2022-11-14T12:06:44.590Z,15.60
2022-11-14T12:10:08.843Z,15.50
2022-11-14T12:13:24.472Z,15.40
2022-11-14T12:16:24.632Z,15.30
2022-11-14T12:19:46.741Z,15.20
2022-11-14T12:22:56.982Z,15.20
2022-11-14T12:26:06.195Z,15.30
2022-11-14T12:29:25.260Z,15.30
2022-11-14T12:32:16.425Z,15.50
2022-11-14T12:35:07.796Z,15.60
2022-11-14T12:37:58.449Z,15.60
2022-11-14T12:40:53.182Z,15.70
2022-11-14T12:43:42.919Z,15.60
2022-11-14T12:47:08.562Z,15.60
2022-11-14T12:50:06.325Z,15.50
2022-11-14T12:52:55.755Z,15.40
2022-11-14T12:56:18.148Z,15.50
2022-11-14T12:59:30.952Z,15.40
2022-11-14T13:02:41.695Z,15.20
2022-11-14T13:05:49.667Z,15.10
2022-11-14T13:09:10.126Z,15.00
2022-11-14T13:12:16.464Z,14.90
2022-11-14T13:15:43.430Z,14.70
2022-11-14T13:18:50.617Z,14.40
2022-11-14T13:21:49.579Z,14.10
2022-11-14T13:25:17.232Z,13.80
2022-11-14T13:28:37.540Z,13.50
2022-11-14T13:31:40.078Z,13.30
2022-11-14T13:34:44.711Z,13.40
2022-11-14T13:37:48.884Z,13.40
2022-11-14T13:40:43.625Z,13.30
2022-11-14T13:43:42.711Z,13.10
2022-11-14T13:46:42.735Z,13.10
2022-11-14T13:49:42.705Z,13.30
2022-11-14T13:52:32.480Z,13.50
2022-11-14T13:55:24.069Z,13.50
2022-11-14T13:58:26.307Z,13.70
2022-11-14T14:01:28.951Z,13.90
2022-11-14T14:04:41.395Z,14.10
2022-11-14T14:07:39.739Z,14.20
2022-11-14T14:10:31.849Z,14.10
2022-11-14T14:13:40.403Z,14.20
2022-11-14T14:16:37.612Z,14.30
2022-11-14T14:19:40.506Z,14.30
2022-11-14T14:22:33.563Z,14.20
2022-11-14T14:25:28.487Z,14.10
2022-11-14T14:28:25.020Z,13.80
2022-11-14T14:31:15.776Z,13.60
2022-11-14T14:34:02.538Z,13.30
2022-11-14T14:36:55.287Z,13.10
2022-11-14T14:39:42.533Z,13.00
2022-11-14T14:42:37.576Z,12.90
2022-11-14T14:45:25.899Z,12.80
2022-11-14T14:48:15.464Z,12.70
2022-11-14T14:51:03.146Z,12.60
2022-11-14T14:53:54.652Z,12.20
2022-11-14T14:56:53.105Z,12.10
2022-11-14T14:59:42.174Z,11.90
2022-11-14T15:02:30.690Z,11.70
2022-11-14T15:05:23.978Z,11.60
2022-11-14T15:08:15.025Z,11.50
2022-11-14T15:11:04.559Z,11.30
2022-11-14T15:13:56.768Z,11.20
2022-11-14T15:16:45.008Z,11.10
2022-11-14T15:19:42.975Z,10.90
2022-11-14T15:22:30.175Z,10.70
2022-11-14T15:25:23.913Z,10.50
2022-11-14T15:28:17.929Z,10.40
2022-11-14T15:31:06.581Z,10.20
2022-11-14T15:34:06.346Z,10.10
2022-11-14T15:37:09.399Z,9.90
2022-11-14T15:40:17.863Z,9.80
2022-11-14T15:43:49.404Z,9.60
2022-11-14T15:46:43.959Z,9.40
2022-11-14T15:49:31.099Z,9.20
2022-11-14T15:52:23.000Z,9.10
2022-11-14T15:55:15.655Z,9.00
2022-11-14T16:01:17.174Z,8.80
2022-11-14T16:04:04.348Z,8.70
2022-11-14T16:06:51.347Z,8.50
2022-11-14T16:09:38.638Z,8.30
2022-11-14T16:12:25.490Z,8.20
2022-11-14T16:15:12.341Z,8.10
2022-11-14T16:18:00.518Z,7.90
2022-11-14T16:20:47.348Z,7.80
2022-11-14T16:23:34.093Z,7.70
2022-11-14T16:26:20.854Z,7.60
2022-11-14T16:29:07.899Z,7.50
2022-11-14T16:31:55.346Z,7.50
2022-11-14T16:34:43.876Z,7.50
2022-11-14T16:37:30.886Z,7.40
2022-11-14T16:40:21.463Z,7.40
2022-11-14T16:43:12.893Z,7.40
2022-11-14T16:46:03.682Z,7.40
2022-11-14T16:48:50.526Z,7.40
2022-11-14T16:51:47.825Z,7.40
2022-11-14T16:54:35.938Z,7.50
2022-11-14T16:57:23.042Z,7.60
2022-11-14T17:00:12.453Z,7.60
2022-11-14T17:02:59.670Z,7.60
2022-11-14T17:05:48.120Z,7.60
2022-11-14T17:08:36.445Z,7.60
2022-11-14T17:11:23.694Z,7.60
2022-11-14T17:14:10.772Z,7.60
2022-11-14T17:17:04.935Z,7.50
2022-11-14T17:19:52.078Z,7.50
2022-11-14T17:22:38.903Z,7.50
2022-11-14T17:25:27.536Z,7.50
2022-11-14T17:28:14.966Z,7.60
2022-11-14T17:31:06.468Z,7.70
2022-11-14T17:33:54.669Z,7.70
2022-11-14T17:36:41.361Z,7.80
2022-11-14T17:39:28.025Z,7.80
2022-11-14T17:42:16.240Z,7.80
2022-11-14T17:45:03.270Z,7.80
2022-11-14T17:47:50.236Z,7.80
2022-11-14T17:50:40.752Z,7.90
2022-11-14T17:53:27.840Z,7.90
2022-11-14T17:56:16.530Z,7.90
2022-11-14T17:59:08.193Z,7.90
2022-11-14T18:01:59.679Z,8.00
2022-11-14T18:04:48.044Z,8.00
2022-11-14T18:07:35.143Z,8.10
2022-11-14T18:10:21.957Z,8.10
2022-11-14T18:13:08.603Z,8.20
2022-11-14T18:16:01.141Z,8.20
2022-11-14T18:18:48.135Z,8.20
2022-11-14T18:21:35.216Z,8.20
2022-11-14T18:24:23.685Z,8.20
2022-11-14T18:27:10.677Z,8.20
2022-11-14T18:30:08.111Z,8.20
2022-11-14T18:33:05.984Z,8.10
2022-11-14T18:35:59.533Z,8.10
2022-11-14T18:38:46.680Z,8.20
2022-11-14T18:41:33.607Z,8.30
2022-11-14T18:44:21.194Z,8.40
2022-11-14T18:47:08.350Z,8.50
2022-11-14T18:49:59.318Z,8.60
2022-11-14T18:52:46.157Z,8.70
2022-11-14T18:55:34.022Z,8.70
2022-11-14T18:58:20.882Z,8.70
2022-11-14T19:01:12.440Z,8.70
2022-11-14T19:04:01.182Z,8.60
2022-11-14T19:06:49.509Z,8.60
2022-11-14T19:09:36.204Z,8.50
2022-11-14T19:12:23.596Z,8.40
2022-11-14T19:15:12.071Z,8.30
2022-11-14T19:17:59.235Z,8.30
2022-11-14T19:20:46.804Z,8.30
2022-11-14T19:23:35.364Z,8.30
2022-11-14T19:26:22.265Z,8.30
2022-11-14T19:29:13.345Z,8.30
2022-11-14T19:32:00.349Z,8.30
2022-11-14T19:34:47.399Z,8.20
2022-11-14T19:37:34.101Z,8.20
2022-11-14T19:40:22.279Z,8.20
2022-11-14T19:43:09.398Z,8.20
2022-11-14T19:46:01.176Z,8.20
2022-11-14T19:48:48.440Z,8.30
2022-11-14T19:51:35.801Z,8.30
2022-11-14T19:54:22.885Z,8.30
2022-11-14T19:57:11.145Z,8.30
2022-11-14T19:59:58.047Z,8.30
2022-11-14T20:02:46.865Z,8.30
2022-11-14T20:05:34.131Z,8.40
2022-11-14T20:08:21.276Z,8.40
2022-11-14T20:11:08.375Z,8.40
2022-11-14T20:13:57.207Z,8.40
2022-11-14T20:16:43.901Z,8.40
2022-11-14T20:19:30.767Z,8.40
2022-11-14T20:22:17.906Z,8.40
2022-11-14T20:25:05.042Z,8.30
2022-11-14T20:27:52.242Z,8.30
2022-11-14T20:30:43.294Z,8.30
2022-11-14T20:33:30.486Z,8.30
2022-11-14T20:36:19.663Z,8.20
2022-11-14T20:39:06.477Z,8.10
2022-11-14T20:41:53.201Z,8.10
2022-11-14T20:44:39.996Z,8.00
2022-11-14T20:47:29.963Z,7.90
2022-11-14T20:50:17.136Z,7.90
2022-11-14T20:53:03.774Z,7.90
2022-11-14T20:55:54.846Z,7.90
2022-11-14T20:58:42.808Z,7.90
2022-11-14T21:01:29.479Z,8.00
2022-11-14T21:04:17.671Z,8.00
2022-11-14T21:07:04.367Z,7.90
2022-11-14T21:10:11.700Z,7.90
2022-11-14T21:13:16.470Z,8.00
2022-11-14T21:16:05.422Z,8.00
2022-11-14T21:18:54.693Z,8.00
2022-11-14T21:21:43.140Z,8.10
2022-11-14T21:24:29.853Z,8.10
2022-11-14T21:27:16.510Z,8.10
2022-11-14T21:30:03.231Z,8.20
2022-11-14T21:32:49.922Z,8.20
2022-11-14T21:35:36.584Z,8.20
2022-11-14T21:38:25.202Z,8.20
2022-11-14T21:41:12.936Z,8.20
2022-11-14T21:44:01.590Z,8.20
2022-11-14T21:46:49.677Z,8.20
2022-11-14T21:49:36.441Z,8.10
2022-11-14T21:52:23.620Z,8.10
2022-11-14T21:55:11.745Z,8.20
2022-11-14T21:57:58.474Z,8.20
2022-11-14T22:00:45.224Z,8.20
2022-11-14T22:03:49.287Z,8.30
2022-11-14T22:06:36.303Z,8.30
2022-11-14T22:09:23.516Z,8.40
2022-11-14T22:12:11.840Z,8.60
2022-11-14T22:14:58.560Z,8.60
2022-11-14T22:17:45.271Z,8.60
2022-11-14T22:20:32.075Z,8.70
2022-11-14T22:23:19.348Z,8.70
2022-11-14T22:26:06.761Z,8.70
2022-11-14T22:28:54.876Z,8.80
2022-11-14T22:31:41.731Z,8.80
2022-11-14T22:34:28.414Z,8.80
2022-11-14T22:37:14.984Z,8.70
2022-11-14T22:40:01.749Z,8.70
2022-11-14T22:42:48.839Z,8.70
2022-11-14T22:45:36.746Z,8.70
2022-11-14T22:48:24.007Z,8.70
2022-11-14T22:51:17.012Z,8.70
2022-11-14T22:54:03.969Z,8.60
2022-11-14T22:56:50.775Z,8.50
2022-11-14T22:59:37.245Z,8.50
2022-11-14T23:02:25.268Z,8.50
2022-11-14T23:05:12.147Z,8.40
2022-11-14T23:07:58.838Z,8.40
2022-11-14T23:10:46.457Z,8.40
2022-11-14T23:13:37.160Z,8.30
2022-11-14T23:16:25.648Z,8.30
2022-11-14T23:19:13.890Z,8.20
2022-11-14T23:22:00.949Z,8.20
2022-11-14T23:24:47.706Z,8.10
2022-11-14T23:27:34.616Z,8.10
2022-11-14T23:30:21.718Z,7.90
2022-11-14T23:33:08.437Z,7.80
2022-11-14T23:35:56.600Z,7.70
2022-11-14T23:38:43.688Z,7.60
2022-11-14T23:41:30.353Z,7.40
2022-11-14T23:44:17.242Z,7.30
2022-11-14T23:47:04.192Z,7.20
2022-11-14T23:49:50.922Z,7.10
2022-11-14T23:52:39.144Z,7.00
2022-11-14T23:55:25.946Z,6.90
2022-11-14T23:58:12.511Z,6.70
